Aircraft
UPR1004 PR-AEB A330
KMIA
Miami International Airport
MMUN
Cancún International Airport
Pilot:: Jair
Aircraft:: A330-300 (GE)
Alternate: MMCZ
Network: ivao
FLIGHT DETAILS
Distance: 462nm Duration 01h 22m
Cruise Speed: Flight Level: 35000
Validation: Validated Type Charter
Flight Fuel
ZFW: 120211
Block Fuel/Initial FOB: 38573
Flight Fuel: 8675
Cargo
Passengers: 278
Cargo: 21200
ROUTE
ROUTE: kmia dct mmun
REMARKS:
DATE
Date: 26-08-08
Departure Time: 2255
Cargo: 21200
FLIGHT DETAILS
Crashed: No
Validator Comments: Validado por Claudenir
Flight Rating: 89
LANDING ANALYSIS
Landing wind: 89º/5 kt
Landing heading: 120º
Landing VS:: -771 ft/min
Landing IAS:: 149 kt
Landing Force G: 0.6 G
Landing Bank: -1
Landing Pitch: -2
Landing Flaps: 100
Navigation Lights: ON
Landing Lights: ON
Beacon Lights: ON
Strobe Lights: ON
viserfly

ALTITUDE CHART

viserfly

MAIN EVENTS

DATE EVENT IAS ALTITUDE
2026-08-07 22:48:29 FLYacars version 1.3.6 6 19
2026-08-07 22:48:29 Aircraft boarding in progress 6 19
2026-08-07 22:48:29 FLAPS 25% 6 19
2026-08-07 22:48:29 Navigation Lights ON 6 19
2026-08-07 22:48:29 Beacon Lights ON 6 19
2026-08-07 22:48:29 Strobe Lights ON 6 19
2026-08-07 22:48:29 Landing Lights ON 6 19
2026-08-07 22:48:29 Taxi Lights ON 6 19
2026-08-07 22:48:29 Starting Engine 2 6 19
2026-08-07 22:48:29 Starting Engine 1 6 19
2026-08-07 22:48:56 Simulator Paused 5 19
2026-08-07 22:50:09 Simulator Un-Paused 5 19
2026-08-07 22:51:38 Aircraft taxiing to runway 0 19
2026-08-07 22:55:00 Detected Take-off roll, HDG 119, IAS 155kt, GS 150kt, G-force 1.1g, Pitch -4.9deg, Bank 0.0deg, Wind 119/12kt, Temp 31°C 155 21
2026-08-07 22:55:00 Airborne 155 21
2026-08-07 22:55:01 Incorrect altimeter settings on takeoff 155 21
2026-08-07 22:55:09 Taxi Lights OFF 178 242
2026-08-07 22:55:17 FLAPS 0% 183kt, ALT 662ft 183 662
2026-08-07 22:55:23 Gear UP, IAS 186kt, GS 179kt, ALT 1132ft AGL 186 1138
2026-08-07 22:58:32 Landing lights ON above 10000fts 255 11001
2026-08-07 23:12:05 Aircraft on Top Of Climb at 34629ft, IAS 277kt, GS 490kt, HDG 239deg, TAT -39deg, WIND 90/26kt 277 34629
2026-08-07 23:44:57 Aircraft on Top Of Descent at 34498ft, IAS 261kt, GS 452kt, HDG 236deg, TAT -39deg, WIND 46/9kt 261 34498
2026-08-08 00:02:27 FLAPS 25% 208kt, ALT 9443ft 208 9443
2026-08-08 00:06:50 FLAPS 50% 177kt, ALT 4148ft 177 4148
2026-08-08 00:13:53 Gear DOWN, IAS 159kt, GS 159kt, ALT 2970ft AGL 159 3035
2026-08-08 00:14:01 Taxi Lights ON 158 2934
2026-08-08 00:14:59 FLAPS 75% 150kt, ALT 2127ft 150 2127
2026-08-08 00:15:00 FLAPS 100% 150kt, ALT 2121ft 150 2121
2026-08-08 00:17:45 Landed at destination with a landing rate of -771fpm, G-force 0.6g, Pitch -2.1deg, Bank -0.7deg, HDG 120deg, IAS 149kt, GS 149kt, Wind 089/05kt, Temp 29°C 149 30
2026-08-08 00:18:03 Aircraft taxiing to apron 28 26
2026-08-08 00:19:56 FLAPS 75% 20 25
2026-08-08 00:19:56 FLAPS 50% 20 25
2026-08-08 00:19:56 FLAPS 0% 20 25
2026-08-08 00:23:14 Aircraft at gate/stand, ground services are moving into position, disembarkation has begun. Remaining FOB 29898kg FLYacars v1.3.6 0 22
viserfly

ACARS DATA

DATE IAS GS ALTITUDE FUEL CONSUMED OAT FLIGHT STATUS
2026-08-07 22:48:59 5 0 19 11 32 BOARDING
2026-08-07 22:49:29 5 0 19 11 32 BOARDING
2026-08-07 22:49:59 5 0 19 11 32 BOARDING
2026-08-07 22:50:29 6 0 19 20 32 BOARDING
2026-08-07 22:50:59 5 2 19 31 31 PUSHBACK
2026-08-07 22:51:29 0 1 19 44 31 PUSHBACK
2026-08-07 22:51:59 0 9 19 63 31 TAXI TO RUNWAY
2026-08-07 22:52:29 0 12 19 76 31 TAXI TO RUNWAY
2026-08-07 22:52:59 3 16 19 88 31 TAXI TO RUNWAY
2026-08-07 22:53:29 0 13 19 101 31 TAXI TO RUNWAY
2026-08-07 22:53:59 5 14 19 113 31 TAXI TO RUNWAY
2026-08-07 22:54:29 24 14 18 126 31 TAXI TO RUNWAY
2026-08-07 22:54:59 149 141 19 230 31 TAKEOFF
2026-08-07 22:55:29 189 182 1553 371 24 INITIAL CLIMB
2026-08-07 22:55:59 225 232 2763 496 22 CLIMB
2026-08-07 22:56:29 249 262 3986 613 20 CLIMB
2026-08-07 22:56:59 248 280 5700 725 17 CLIMB
2026-08-07 22:57:29 248 289 7457 837 14 CLIMB
2026-08-07 22:57:59 249 288 9208 946 11 CLIMB
2026-08-07 22:58:29 251 299 10913 1057 9 CLIMB
2026-08-07 22:58:59 282 338 11729 1168 7 CLIMB
2026-08-07 22:59:29 286 348 13194 1275 5 CLIMB
2026-08-07 22:59:59 286 356 14655 1380 2 CLIMB
2026-08-07 23:00:29 286 364 16030 1481 0 CLIMB
2026-08-07 23:00:59 286 371 17346 1583 -2 CLIMB
2026-08-07 23:01:29 286 377 18570 1679 -4 CLIMB
2026-08-07 23:01:59 286 385 19704 1775 -6 CLIMB
2026-08-07 23:02:29 287 392 20770 1870 -8 CLIMB
2026-08-07 23:02:59 287 398 21809 1962 -10 CLIMB
2026-08-07 23:03:29 286 405 22806 2053 -12 CLIMB
2026-08-07 23:03:59 286 412 23757 2141 -14 CLIMB
2026-08-07 23:04:29 286 420 24610 2230 -16 CLIMB
2026-08-07 23:04:59 287 426 25474 2313 -18 CLIMB
2026-08-07 23:05:29 287 432 26317 2398 -20 CLIMB
2026-08-07 23:05:59 287 438 27122 2481 -22 CLIMB
2026-08-07 23:06:29 287 443 27887 2562 -23 CLIMB
2026-08-07 23:06:59 287 449 28617 2643 -25 CLIMB
2026-08-07 23:07:29 287 454 29317 2723 -27 CLIMB
2026-08-07 23:07:59 286 459 29971 2799 -28 CLIMB
2026-08-07 23:08:29 287 467 30504 2877 -29 CLIMB
2026-08-07 23:08:59 287 472 31086 2953 -31 CLIMB
2026-08-07 23:09:29 287 477 31641 3028 -32 CLIMB
2026-08-07 23:09:59 287 481 32198 3101 -33 CLIMB
2026-08-07 23:10:29 287 485 32734 3174 -34 CLIMB
2026-08-07 23:10:59 287 487 33310 3245 -36 CLIMB
2026-08-07 23:11:29 284 487 33950 3316 -37 CLIMB
2026-08-07 23:11:59 277 487 34585 3384 -39 CLIMB
2026-08-07 23:12:29 279 494 34918 3453 -39 CLIMB
2026-08-07 23:12:59 273 493 35572 3520 -41 CLIMB
2026-08-07 23:13:29 270 492 36191 3585 -42 CLIMB
2026-08-07 23:13:59 264 485 36500 3640 -43 ENROUTE
2026-08-07 23:14:29 260 478 36501 3686 -43 ENROUTE
2026-08-07 23:14:59 260 478 36500 3736 -43 ENROUTE
2026-08-07 23:15:29 260 478 36499 3788 -43 ENROUTE
2026-08-07 23:15:59 260 478 36500 3839 -43 ENROUTE
2026-08-07 23:16:29 260 478 36497 3891 -43 ENROUTE
2026-08-07 23:16:59 261 478 36497 3943 -43 ENROUTE
2026-08-07 23:17:29 261 474 36503 3993 -43 ENROUTE
2026-08-07 23:17:59 260 473 36503 4041 -43 ENROUTE
2026-08-07 23:18:29 260 473 36503 4093 -43 ENROUTE
2026-08-07 23:18:59 260 473 36503 4145 -43 ENROUTE
2026-08-07 23:19:29 258 474 36495 4198 -43 ENROUTE
2026-08-07 23:19:59 260 476 36493 4251 -43 ENROUTE
2026-08-07 23:20:29 262 475 36494 4302 -44 ENROUTE
2026-08-07 23:20:59 260 471 36497 4351 -44 ENROUTE
2026-08-07 23:21:29 260 471 36494 4401 -44 ENROUTE
2026-08-07 23:21:59 260 471 36494 4452 -44 ENROUTE
2026-08-07 23:22:29 260 471 36497 4504 -44 ENROUTE
2026-08-07 23:22:59 259 471 36497 4556 -44 ENROUTE
2026-08-07 23:23:29 259 473 36487 4609 -44 ENROUTE
2026-08-07 23:23:59 261 473 36489 4661 -44 ENROUTE
2026-08-07 23:24:29 260 471 36490 4712 -44 ENROUTE
2026-08-07 23:24:59 260 471 36489 4763 -44 ENROUTE
2026-08-07 23:25:29 260 471 36493 4814 -44 ENROUTE
2026-08-07 23:25:59 260 471 36493 4866 -44 ENROUTE
2026-08-07 23:26:29 260 471 36490 4918 -44 ENROUTE
2026-08-07 23:26:59 260 471 36487 4969 -44 ENROUTE
2026-08-07 23:27:29 260 471 36486 5020 -44 ENROUTE
2026-08-07 23:27:59 260 471 36485 5072 -44 ENROUTE
2026-08-07 23:28:29 260 471 36483 5124 -44 ENROUTE
2026-08-07 23:28:59 260 471 36483 5174 -44 ENROUTE
2026-08-07 23:29:29 260 471 36483 5226 -44 ENROUTE
2026-08-07 23:29:59 260 471 36483 5278 -44 ENROUTE
2026-08-07 23:30:29 261 470 36485 5328 -44 ENROUTE
2026-08-07 23:30:59 260 468 36480 5379 -44 ENROUTE
2026-08-07 23:31:29 260 468 36479 5431 -44 ENROUTE
2026-08-07 23:31:59 260 469 36479 5483 -44 ENROUTE
2026-08-07 23:32:29 260 469 36479 5532 -44 ENROUTE
2026-08-07 23:32:59 260 468 36479 5585 -44 ENROUTE
2026-08-07 23:33:29 260 468 36479 5636 -44 ENROUTE
2026-08-07 23:33:59 260 468 36478 5687 -44 ENROUTE
2026-08-07 23:34:29 260 468 36478 5739 -44 ENROUTE
2026-08-07 23:34:59 260 468 36474 5791 -44 ENROUTE
2026-08-07 23:35:29 260 468 36474 5840 -44 ENROUTE
2026-08-07 23:35:59 260 468 36474 5892 -44 ENROUTE
2026-08-07 23:36:29 260 468 36474 5943 -44 ENROUTE
2026-08-07 23:36:59 260 468 36477 5996 -44 ENROUTE
2026-08-07 23:37:29 260 467 36481 6047 -44 ENROUTE
2026-08-07 23:37:59 260 467 36481 6098 -44 ENROUTE
2026-08-07 23:38:29 260 467 36481 6150 -44 ENROUTE
2026-08-07 23:38:59 260 467 36477 6200 -44 ENROUTE
2026-08-07 23:39:29 260 466 36477 6250 -44 ENROUTE
2026-08-07 23:39:59 260 466 36477 6302 -44 ENROUTE
2026-08-07 23:40:29 260 466 36479 6354 -44 ENROUTE
2026-08-07 23:40:59 260 465 36480 6405 -44 ENROUTE
2026-08-07 23:41:29 260 465 36480 6456 -44 ENROUTE
2026-08-07 23:41:59 260 465 36480 6508 -44 ENROUTE
2026-08-07 23:42:29 260 465 36479 6560 -44 ENROUTE
2026-08-07 23:42:59 260 464 36476 6611 -44 ENROUTE
2026-08-07 23:43:29 260 464 36476 6660 -44 ENROUTE
2026-08-07 23:43:59 262 464 36223 6708 -43 DESCENT
2026-08-07 23:44:29 262 458 35333 6725 -41 DESCENT
2026-08-07 23:44:59 261 451 34436 6731 -39 DESCENT
2026-08-07 23:45:29 261 444 33540 6739 -36 DESCENT
2026-08-07 23:45:59 260 438 32644 6747 -34 DESCENT
2026-08-07 23:46:29 259 432 31748 6754 -32 DESCENT
2026-08-07 23:46:59 259 426 30852 6761 -30 DESCENT
2026-08-07 23:47:29 260 421 29954 6769 -28 DESCENT
2026-08-07 23:47:59 261 416 29059 6777 -26 DESCENT
2026-08-07 23:48:29 261 410 28161 6784 -23 DESCENT
2026-08-07 23:48:59 262 405 27263 6792 -22 DESCENT
2026-08-07 23:49:29 261 400 26366 6801 -19 DESCENT
2026-08-07 23:49:59 261 394 25470 6809 -17 DESCENT
2026-08-07 23:50:29 261 389 24572 6817 -15 DESCENT
2026-08-07 23:50:59 261 384 23674 6825 -14 DESCENT
2026-08-07 23:51:29 262 379 22776 6833 -12 DESCENT
2026-08-07 23:51:59 262 374 21882 6842 -10 DESCENT
2026-08-07 23:52:29 261 369 20983 6850 -9 DESCENT
2026-08-07 23:52:59 262 364 20084 6858 -7 DESCENT
2026-08-07 23:53:29 262 359 19189 6867 -5 DESCENT
2026-08-07 23:53:59 262 355 18291 6876 -4 DESCENT
2026-08-07 23:54:29 263 350 17392 6884 -2 DESCENT
2026-08-07 23:54:59 264 345 16495 6893 -1 DESCENT
2026-08-07 23:55:29 264 340 15597 6902 0 DESCENT
2026-08-07 23:55:59 265 335 14697 6911 2 DESCENT
2026-08-07 23:56:29 264 329 13799 6921 3 DESCENT
2026-08-07 23:56:59 263 324 12902 6930 5 DESCENT
2026-08-07 23:57:29 263 319 12007 6940 6 DESCENT
2026-08-07 23:57:59 262 315 11109 6950 8 DESCENT
2026-08-07 23:58:29 253 303 10452 6960 9 DESCENT
2026-08-07 23:58:59 249 298 10412 7013 9 ENROUTE
2026-08-07 23:59:29 249 299 10411 7080 9 ENROUTE
2026-08-07 23:59:59 249 298 10411 7146 9 ENROUTE
2026-08-08 00:00:29 250 299 10416 7214 9 ENROUTE
2026-08-08 00:00:59 240 287 10415 7264 9 ENROUTE
2026-08-08 00:01:29 214 261 10411 7274 9 ENROUTE
2026-08-08 00:01:59 204 249 10042 7284 10 DESCENT
2026-08-08 00:02:29 209 247 9404 7294 11 DESCENT
2026-08-08 00:02:59 205 241 8801 7304 12 DESCENT
2026-08-08 00:03:29 203 236 8156 7314 13 DESCENT
2026-08-08 00:03:59 201 228 7507 7324 14 DESCENT
2026-08-08 00:04:29 201 225 6859 7334 15 DESCENT
2026-08-08 00:04:59 201 225 6206 7345 16 DESCENT
2026-08-08 00:05:29 201 229 5557 7356 17 DESCENT
2026-08-08 00:05:59 197 224 4927 7366 18 DESCENT
2026-08-08 00:06:29 193 213 4286 7377 20 DESCENT
2026-08-08 00:06:59 172 186 4155 7395 20 ENROUTE
2026-08-08 00:07:29 164 178 4139 7448 20 ENROUTE
2026-08-08 00:07:59 159 172 4141 7498 20 ENROUTE
2026-08-08 00:08:29 159 173 4141 7558 20 ENROUTE
2026-08-08 00:08:59 159 173 4140 7620 20 ENROUTE
2026-08-08 00:09:29 159 173 4143 7678 20 ENROUTE
2026-08-08 00:09:59 158 172 4145 7738 20 ENROUTE
2026-08-08 00:10:29 159 173 4143 7797 20 ENROUTE
2026-08-08 00:10:59 158 172 4142 7858 20 ENROUTE
2026-08-08 00:11:29 158 163 4139 7924 20 ENROUTE
2026-08-08 00:11:59 165 168 3679 7958 21 DESCENT
2026-08-08 00:12:29 157 160 3216 7970 21 DESCENT
2026-08-08 00:12:59 160 160 3105 8019 22 ENROUTE
2026-08-08 00:13:29 159 159 3098 8080 22 ENROUTE
2026-08-08 00:13:59 158 157 2967 8133 22 DESCENT
2026-08-08 00:14:29 149 149 2537 8166 23 DESCENT
2026-08-08 00:14:59 150 147 2134 8209 23 APPROACH
2026-08-08 00:15:29 144 143 1758 8258 24 APPROACH
2026-08-08 00:15:59 148 143 1375 8320 25 APPROACH
2026-08-08 00:16:29 146 140 1000 8382 26 ON FINAL
2026-08-08 00:16:59 142 142 627 8436 28 ON FINAL
2026-08-08 00:17:29 145 146 215 8496 29 ON FINAL
2026-08-08 00:17:59 56 53 26 8545 29 ON FINAL
2026-08-08 00:18:29 12 10 25 8559 29 TAXI TO APRON
2026-08-08 00:18:59 16 13 25 8571 29 TAXI TO APRON
2026-08-08 00:19:29 17 14 26 8584 29 TAXI TO APRON
2026-08-08 00:19:59 20 17 25 8597 29 TAXI TO APRON
2026-08-08 00:20:29 22 21 23 8610 29 TAXI TO APRON
2026-08-08 00:20:59 14 11 22 8623 29 TAXI TO APRON
2026-08-08 00:21:29 10 13 21 8637 29 TAXI TO APRON
2026-08-08 00:21:59 14 17 21 8649 29 TAXI TO APRON
2026-08-08 00:22:29 17 20 22 8662 29 TAXI TO APRON
2026-08-08 00:22:59 4 8 22 8674 29 TAXI TO APRON
  • Join our VA!

    It has been 11 years of great learning, friendships, and stories.

  • Sign up now!